sensor_id;sensor_type;location;lat;lon;timestamp;P1;durP1;ratioP1;P2;durP2;ratioP2
29362;SDS011;16349;53.672;10.014;2023-06-22T00:00:48;3.17;;;2.83;;
29362;SDS011;16349;53.672;10.014;2023-06-22T00:03:16;3.00;;;2.80;;
29362;SDS011;16349;53.672;10.014;2023-06-22T00:05:44;3.77;;;3.13;;
29362;SDS011;16349;53.672;10.014;2023-06-22T00:08:11;3.23;;;2.97;;
29362;SDS011;16349;53.672;10.014;2023-06-22T00:10:38;3.30;;;3.00;;
29362;SDS011;16349;53.672;10.014;2023-06-22T00:13:07;3.60;;;3.40;;
29362;SDS011;16349;53.672;10.014;2023-06-22T00:15:34;3.43;;;3.20;;
29362;SDS011;16349;53.672;10.014;2023-06-22T00:18:01;4.63;;;3.57;;
29362;SDS011;16349;53.672;10.014;2023-06-22T00:20:28;5.13;;;3.57;;
29362;SDS011;16349;53.672;10.014;2023-06-22T00:22:55;3.40;;;3.10;;
29362;SDS011;16349;53.672;10.014;2023-06-22T00:25:23;3.17;;;2.87;;
29362;SDS011;16349;53.672;10.014;2023-06-22T00:27:50;2.83;;;2.63;;
29362;SDS011;16349;53.672;10.014;2023-06-22T00:30:18;3.33;;;3.03;;
29362;SDS011;16349;53.672;10.014;2023-06-22T00:32:45;4.00;;;2.97;;
29362;SDS011;16349;53.672;10.014;2023-06-22T00:35:13;3.60;;;3.30;;
29362;SDS011;16349;53.672;10.014;2023-06-22T00:37:40;3.67;;;3.13;;
29362;SDS011;16349;53.672;10.014;2023-06-22T00:40:07;3.50;;;3.20;;
29362;SDS011;16349;53.672;10.014;2023-06-22T00:42:36;3.30;;;3.00;;
29362;SDS011;16349;53.672;10.014;2023-06-22T00:45:03;3.87;;;3.37;;
29362;SDS011;16349;53.672;10.014;2023-06-22T00:47:32;3.43;;;3.07;;
29362;SDS011;16349;53.672;10.014;2023-06-22T00:50:00;3.63;;;3.30;;
29362;SDS011;16349;53.672;10.014;2023-06-22T00:52:28;3.20;;;2.90;;
29362;SDS011;16349;53.672;10.014;2023-06-22T00:54:56;3.43;;;3.23;;
29362;SDS011;16349;53.672;10.014;2023-06-22T00:57:26;2.93;;;2.67;;
29362;SDS011;16349;53.672;10.014;2023-06-22T00:59:54;3.80;;;3.50;;
29362;SDS011;16349;53.672;10.014;2023-06-22T01:02:21;3.67;;;3.13;;
29362;SDS011;16349;53.672;10.014;2023-06-22T01:04:49;3.70;;;3.40;;
29362;SDS011;16349;53.672;10.014;2023-06-22T01:07:19;3.67;;;3.10;;
29362;SDS011;16349;53.672;10.014;2023-06-22T01:09:54;5.13;;;3.23;;
29362;SDS011;16349;53.672;10.014;2023-06-22T01:12:25;4.07;;;3.30;;
29362;SDS011;16349;53.672;10.014;2023-06-22T01:14:57;3.40;;;3.07;;
29362;SDS011;16349;53.672;10.014;2023-06-22T01:17:31;3.50;;;3.17;;
29362;SDS011;16349;53.672;10.014;2023-06-22T01:20:00;3.53;;;3.23;;
29362;SDS011;16349;53.672;10.014;2023-06-22T01:22:31;3.83;;;3.43;;
29362;SDS011;16349;53.672;10.014;2023-06-22T01:25:11;3.90;;;3.57;;
29362;SDS011;16349;53.672;10.014;2023-06-22T01:27:40;3.57;;;3.27;;
29362;SDS011;16349;53.672;10.014;2023-06-22T01:30:19;4.77;;;3.47;;
29362;SDS011;16349;53.672;10.014;2023-06-22T01:32:46;4.97;;;3.60;;
29362;SDS011;16349;53.672;10.014;2023-06-22T01:35:14;3.50;;;3.20;;
29362;SDS011;16349;53.672;10.014;2023-06-22T01:37:42;3.87;;;3.50;;
29362;SDS011;16349;53.672;10.014;2023-06-22T01:40:10;5.10;;;3.70;;
29362;SDS011;16349;53.672;10.014;2023-06-22T01:42:38;4.37;;;3.67;;
29362;SDS011;16349;53.672;10.014;2023-06-22T01:45:06;3.87;;;3.47;;
29362;SDS011;16349;53.672;10.014;2023-06-22T01:47:38;3.30;;;3.10;;
29362;SDS011;16349;53.672;10.014;2023-06-22T01:50:05;3.50;;;3.20;;
29362;SDS011;16349;53.672;10.014;2023-06-22T01:52:33;3.97;;;3.67;;
29362;SDS011;16349;53.672;10.014;2023-06-22T01:55:00;4.80;;;3.73;;
29362;SDS011;16349;53.672;10.014;2023-06-22T01:57:27;3.70;;;3.40;;
29362;SDS011;16349;53.672;10.014;2023-06-22T01:59:57;5.20;;;3.60;;
29362;SDS011;16349;53.672;10.014;2023-06-22T02:02:27;8.13;;;3.97;;
29362;SDS011;16349;53.672;10.014;2023-06-22T02:05:01;4.27;;;3.50;;
29362;SDS011;16349;53.672;10.014;2023-06-22T02:07:33;4.00;;;3.70;;
29362;SDS011;16349;53.672;10.014;2023-06-22T02:10:03;5.17;;;3.87;;
29362;SDS011;16349;53.672;10.014;2023-06-22T02:12:33;3.80;;;3.47;;
29362;SDS011;16349;53.672;10.014;2023-06-22T02:15:02;4.43;;;4.00;;
29362;SDS011;16349;53.672;10.014;2023-06-22T02:17:29;4.20;;;3.80;;
29362;SDS011;16349;53.672;10.014;2023-06-22T02:20:00;4.73;;;4.17;;
29362;SDS011;16349;53.672;10.014;2023-06-22T02:22:29;4.33;;;3.93;;
29362;SDS011;16349;53.672;10.014;2023-06-22T02:24:56;4.57;;;4.07;;
29362;SDS011;16349;53.672;10.014;2023-06-22T02:27:24;3.77;;;3.47;;
29362;SDS011;16349;53.672;10.014;2023-06-22T02:29:51;4.00;;;3.60;;
29362;SDS011;16349;53.672;10.014;2023-06-22T02:32:17;4.60;;;3.20;;
29362;SDS011;16349;53.672;10.014;2023-06-22T02:34:45;4.63;;;3.93;;
29362;SDS011;16349;53.672;10.014;2023-06-22T02:37:16;5.47;;;3.60;;
29362;SDS011;16349;53.672;10.014;2023-06-22T02:39:43;4.10;;;3.77;;
29362;SDS011;16349;53.672;10.014;2023-06-22T02:42:10;3.57;;;3.27;;
29362;SDS011;16349;53.672;10.014;2023-06-22T02:44:37;4.57;;;4.17;;
29362;SDS011;16349;53.672;10.014;2023-06-22T02:47:04;3.70;;;3.40;;
29362;SDS011;16349;53.672;10.014;2023-06-22T02:49:31;4.70;;;4.20;;
29362;SDS011;16349;53.672;10.014;2023-06-22T02:51:58;5.17;;;3.83;;
29362;SDS011;16349;53.672;10.014;2023-06-22T02:54:27;5.63;;;3.93;;
29362;SDS011;16349;53.672;10.014;2023-06-22T02:56:54;3.83;;;3.43;;
29362;SDS011;16349;53.672;10.014;2023-06-22T02:59:21;4.53;;;3.70;;
29362;SDS011;16349;53.672;10.014;2023-06-22T03:01:51;3.40;;;3.20;;
29362;SDS011;16349;53.672;10.014;2023-06-22T03:04:22;4.17;;;3.67;;
29362;SDS011;16349;53.672;10.014;2023-06-22T03:06:50;5.40;;;4.10;;
29362;SDS011;16349;53.672;10.014;2023-06-22T03:09:17;4.23;;;3.80;;
29362;SDS011;16349;53.672;10.014;2023-06-22T03:11:45;4.27;;;3.87;;
29362;SDS011;16349;53.672;10.014;2023-06-22T03:14:12;4.23;;;3.83;;
29362;SDS011;16349;53.672;10.014;2023-06-22T03:16:39;4.77;;;4.37;;
29362;SDS011;16349;53.672;10.014;2023-06-22T03:19:06;5.03;;;4.07;;
29362;SDS011;16349;53.672;10.014;2023-06-22T03:21:33;4.83;;;4.40;;
29362;SDS011;16349;53.672;10.014;2023-06-22T03:24:00;4.00;;;3.70;;
29362;SDS011;16349;53.672;10.014;2023-06-22T03:26:27;4.93;;;3.80;;
29362;SDS011;16349;53.672;10.014;2023-06-22T03:28:57;4.83;;;4.37;;
29362;SDS011;16349;53.672;10.014;2023-06-22T03:31:27;4.27;;;3.87;;
29362;SDS011;16349;53.672;10.014;2023-06-22T03:33:55;4.80;;;4.40;;
29362;SDS011;16349;53.672;10.014;2023-06-22T03:36:22;5.53;;;4.83;;
29362;SDS011;16349;53.672;10.014;2023-06-22T03:38:50;5.07;;;4.57;;
29362;SDS011;16349;53.672;10.014;2023-06-22T03:41:18;4.10;;;3.80;;
29362;SDS011;16349;53.672;10.014;2023-06-22T03:43:46;4.27;;;3.97;;
29362;SDS011;16349;53.672;10.014;2023-06-22T03:46:15;5.93;;;4.87;;
29362;SDS011;16349;53.672;10.014;2023-06-22T03:48:42;4.83;;;4.43;;
29362;SDS011;16349;53.672;10.014;2023-06-22T03:51:09;4.67;;;4.00;;
29362;SDS011;16349;53.672;10.014;2023-06-22T03:53:36;5.40;;;3.80;;
29362;SDS011;16349;53.672;10.014;2023-06-22T03:56:03;4.80;;;4.23;;
29362;SDS011;16349;53.672;10.014;2023-06-22T03:58:30;5.72;;;5.13;;
29362;SDS011;16349;53.672;10.014;2023-06-22T04:00:57;4.43;;;4.13;;
29362;SDS011;16349;53.672;10.014;2023-06-22T04:03:26;4.57;;;4.23;;
29362;SDS011;16349;53.672;10.014;2023-06-22T04:05:53;5.07;;;4.67;;
29362;SDS011;16349;53.672;10.014;2023-06-22T04:08:20;4.40;;;4.00;;
29362;SDS011;16349;53.672;10.014;2023-06-22T04:10:46;4.77;;;4.33;;
29362;SDS011;16349;53.672;10.014;2023-06-22T04:13:13;5.07;;;4.63;;
29362;SDS011;16349;53.672;10.014;2023-06-22T04:15:40;4.83;;;4.33;;
29362;SDS011;16349;53.672;10.014;2023-06-22T04:18:07;7.53;;;5.10;;
29362;SDS011;16349;53.672;10.014;2023-06-22T04:20:35;4.60;;;4.20;;
29362;SDS011;16349;53.672;10.014;2023-06-22T04:23:02;5.83;;;5.20;;
29362;SDS011;16349;53.672;10.014;2023-06-22T04:25:29;5.53;;;5.03;;
29362;SDS011;16349;53.672;10.014;2023-06-22T04:27:55;6.60;;;5.77;;
29362;SDS011;16349;53.672;10.014;2023-06-22T04:30:22;6.30;;;4.97;;
29362;SDS011;16349;53.672;10.014;2023-06-22T04:32:49;6.33;;;5.23;;
29362;SDS011;16349;53.672;10.014;2023-06-22T04:35:21;5.70;;;4.10;;
29362;SDS011;16349;53.672;10.014;2023-06-22T04:37:49;5.57;;;4.80;;
29362;SDS011;16349;53.672;10.014;2023-06-22T04:40:19;5.93;;;5.33;;
29362;SDS011;16349;53.672;10.014;2023-06-22T04:42:47;6.67;;;5.93;;
29362;SDS011;16349;53.672;10.014;2023-06-22T04:45:18;5.63;;;5.10;;
29362;SDS011;16349;53.672;10.014;2023-06-22T04:47:45;6.67;;;5.93;;
29362;SDS011;16349;53.672;10.014;2023-06-22T04:50:12;7.50;;;5.57;;
29362;SDS011;16349;53.672;10.014;2023-06-22T04:52:39;6.67;;;5.70;;
29362;SDS011;16349;53.672;10.014;2023-06-22T04:55:08;9.70;;;6.10;;
29362;SDS011;16349;53.672;10.014;2023-06-22T04:57:35;6.83;;;5.43;;
29362;SDS011;16349;53.672;10.014;2023-06-22T05:00:05;5.10;;;4.67;;
29362;SDS011;16349;53.672;10.014;2023-06-22T05:02:37;6.73;;;4.47;;
29362;SDS011;16349;53.672;10.014;2023-06-22T05:05:05;5.43;;;4.50;;
29362;SDS011;16349;53.672;10.014;2023-06-22T05:07:32;7.23;;;5.50;;
29362;SDS011;16349;53.672;10.014;2023-06-22T05:09:59;5.20;;;4.50;;
29362;SDS011;16349;53.672;10.014;2023-06-22T05:12:29;5.03;;;4.57;;
29362;SDS011;16349;53.672;10.014;2023-06-22T05:14:56;5.83;;;4.83;;
29362;SDS011;16349;53.672;10.014;2023-06-22T05:17:23;5.73;;;4.43;;
29362;SDS011;16349;53.672;10.014;2023-06-22T05:19:50;9.00;;;5.67;;
29362;SDS011;16349;53.672;10.014;2023-06-22T05:22:17;3.77;;;3.43;;
29362;SDS011;16349;53.672;10.014;2023-06-22T05:24:45;5.63;;;4.50;;
29362;SDS011;16349;53.672;10.014;2023-06-22T05:27:12;4.73;;;4.20;;
29362;SDS011;16349;53.672;10.014;2023-06-22T05:29:41;3.90;;;3.60;;
29362;SDS011;16349;53.672;10.014;2023-06-22T05:32:09;7.10;;;4.23;;
29362;SDS011;16349;53.672;10.014;2023-06-22T05:34:37;8.40;;;4.07;;
29362;SDS011;16349;53.672;10.014;2023-06-22T05:37:04;14.57;;;5.27;;
29362;SDS011;16349;53.672;10.014;2023-06-22T05:39:31;5.80;;;4.10;;
29362;SDS011;16349;53.672;10.014;2023-06-22T05:41:58;5.73;;;3.70;;
29362;SDS011;16349;53.672;10.014;2023-06-22T05:44:25;7.77;;;4.00;;
29362;SDS011;16349;53.672;10.014;2023-06-22T05:46:53;5.63;;;3.27;;
29362;SDS011;16349;53.672;10.014;2023-06-22T05:49:20;4.93;;;3.37;;
29362;SDS011;16349;53.672;10.014;2023-06-22T05:51:47;6.67;;;3.27;;
29362;SDS011;16349;53.672;10.014;2023-06-22T05:54:14;4.20;;;3.00;;
29362;SDS011;16349;53.672;10.014;2023-06-22T05:56:43;4.43;;;2.97;;
29362;SDS011;16349;53.672;10.014;2023-06-22T05:59:09;3.93;;;2.60;;
29362;SDS011;16349;53.672;10.014;2023-06-22T06:01:37;5.20;;;2.90;;
29362;SDS011;16349;53.672;10.014;2023-06-22T06:04:06;4.40;;;2.73;;
29362;SDS011;16349;53.672;10.014;2023-06-22T06:06:34;2.70;;;2.50;;
29362;SDS011;16349;53.672;10.014;2023-06-22T06:09:02;3.03;;;2.73;;
29362;SDS011;16349;53.672;10.014;2023-06-22T06:11:29;4.30;;;2.43;;
29362;SDS011;16349;53.672;10.014;2023-06-22T06:13:56;3.77;;;2.40;;
29362;SDS011;16349;53.672;10.014;2023-06-22T06:16:23;2.77;;;2.10;;
29362;SDS011;16349;53.672;10.014;2023-06-22T06:18:49;2.50;;;2.30;;
29362;SDS011;16349;53.672;10.014;2023-06-22T06:21:19;2.33;;;2.07;;
29362;SDS011;16349;53.672;10.014;2023-06-22T06:23:46;2.53;;;2.40;;
29362;SDS011;16349;53.672;10.014;2023-06-22T06:26:13;3.63;;;2.10;;
29362;SDS011;16349;53.672;10.014;2023-06-22T06:28:41;2.60;;;2.10;;
29362;SDS011;16349;53.672;10.014;2023-06-22T06:31:08;2.20;;;2.07;;
29362;SDS011;16349;53.672;10.014;2023-06-22T06:33:37;2.00;;;1.80;;
29362;SDS011;16349;53.672;10.014;2023-06-22T06:36:04;3.90;;;1.97;;
29362;SDS011;16349;53.672;10.014;2023-06-22T06:38:34;1.60;;;1.50;;
29362;SDS011;16349;53.672;10.014;2023-06-22T06:41:01;2.33;;;2.00;;
29362;SDS011;16349;53.672;10.014;2023-06-22T06:43:28;1.80;;;1.70;;
29362;SDS011;16349;53.672;10.014;2023-06-22T06:45:55;2.07;;;1.93;;
29362;SDS011;16349;53.672;10.014;2023-06-22T06:48:22;2.00;;;1.90;;
29362;SDS011;16349;53.672;10.014;2023-06-22T06:50:49;2.93;;;1.93;;
29362;SDS011;16349;53.672;10.014;2023-06-22T06:53:16;2.73;;;2.00;;
29362;SDS011;16349;53.672;10.014;2023-06-22T06:55:44;2.10;;;1.93;;
29362;SDS011;16349;53.672;10.014;2023-06-22T06:58:11;1.70;;;1.60;;
29362;SDS011;16349;53.672;10.014;2023-06-22T07:00:38;2.10;;;1.87;;
29362;SDS011;16349;53.672;10.014;2023-06-22T07:03:05;2.97;;;2.30;;
29362;SDS011;16349;53.672;10.014;2023-06-22T07:05:33;2.40;;;1.93;;
29362;SDS011;16349;53.672;10.014;2023-06-22T07:07:59;2.90;;;2.00;;
29362;SDS011;16349;53.672;10.014;2023-06-22T07:10:26;2.37;;;2.17;;
29362;SDS011;16349;53.672;10.014;2023-06-22T07:12:55;3.60;;;2.13;;
29362;SDS011;16349;53.672;10.014;2023-06-22T07:15:22;4.10;;;2.20;;
29362;SDS011;16349;53.672;10.014;2023-06-22T07:17:49;3.07;;;2.13;;
29362;SDS011;16349;53.672;10.014;2023-06-22T07:20:16;2.30;;;2.10;;
29362;SDS011;16349;53.672;10.014;2023-06-22T07:22:44;3.17;;;2.17;;
29362;SDS011;16349;53.672;10.014;2023-06-22T07:25:11;2.07;;;1.87;;
29362;SDS011;16349;53.672;10.014;2023-06-22T07:27:43;2.73;;;2.13;;
29362;SDS011;16349;53.672;10.014;2023-06-22T07:30:13;2.20;;;2.00;;
29362;SDS011;16349;53.672;10.014;2023-06-22T07:32:40;3.93;;;2.10;;
29362;SDS011;16349;53.672;10.014;2023-06-22T07:35:07;3.83;;;2.40;;
29362;SDS011;16349;53.672;10.014;2023-06-22T07:37:34;2.63;;;2.37;;
29362;SDS011;16349;53.672;10.014;2023-06-22T07:40:02;3.20;;;2.63;;
29362;SDS011;16349;53.672;10.014;2023-06-22T07:42:31;6.47;;;2.73;;
29362;SDS011;16349;53.672;10.014;2023-06-22T07:44:58;3.73;;;3.00;;
29362;SDS011;16349;53.672;10.014;2023-06-22T07:47:28;3.70;;;2.47;;
29362;SDS011;16349;53.672;10.014;2023-06-22T07:49:55;2.60;;;2.40;;
29362;SDS011;16349;53.672;10.014;2023-06-22T07:52:23;2.70;;;2.50;;
29362;SDS011;16349;53.672;10.014;2023-06-22T07:54:59;4.10;;;2.57;;
29362;SDS011;16349;53.672;10.014;2023-06-22T07:57:27;3.70;;;2.80;;
29362;SDS011;16349;53.672;10.014;2023-06-22T07:59:58;2.53;;;2.10;;
29362;SDS011;16349;53.672;10.014;2023-06-22T08:02:25;2.93;;;2.30;;
29362;SDS011;16349;53.672;10.014;2023-06-22T08:04:54;2.00;;;1.90;;
29362;SDS011;16349;53.672;10.014;2023-06-22T08:07:20;3.67;;;2.70;;
29362;SDS011;16349;53.672;10.014;2023-06-22T08:09:47;4.53;;;2.50;;
29362;SDS011;16349;53.672;10.014;2023-06-22T08:12:14;2.37;;;2.10;;
29362;SDS011;16349;53.672;10.014;2023-06-22T08:14:43;3.90;;;2.50;;
29362;SDS011;16349;53.672;10.014;2023-06-22T08:17:11;3.72;;;2.50;;
29362;SDS011;16349;53.672;10.014;2023-06-22T08:19:40;2.42;;;1.98;;
29362;SDS011;16349;53.672;10.014;2023-06-22T08:22:07;3.33;;;2.70;;
29362;SDS011;16349;53.672;10.014;2023-06-22T08:24:33;3.38;;;2.20;;
29362;SDS011;16349;53.672;10.014;2023-06-22T08:27:00;2.95;;;2.55;;
29362;SDS011;16349;53.672;10.014;2023-06-22T08:29:27;2.20;;;2.00;;
29362;SDS011;16349;53.672;10.014;2023-06-22T08:31:54;2.70;;;2.38;;
29362;SDS011;16349;53.672;10.014;2023-06-22T08:34:21;2.63;;;2.42;;
29362;SDS011;16349;53.672;10.014;2023-06-22T08:36:54;2.50;;;2.28;;
29362;SDS011;16349;53.672;10.014;2023-06-22T08:39:21;3.33;;;2.30;;
29362;SDS011;16349;53.672;10.014;2023-06-22T08:41:48;2.60;;;2.38;;
29362;SDS011;16349;53.672;10.014;2023-06-22T08:44:16;3.45;;;2.63;;
29362;SDS011;16349;53.672;10.014;2023-06-22T08:46:44;2.45;;;1.90;;
29362;SDS011;16349;53.672;10.014;2023-06-22T08:49:11;1.90;;;1.77;;
29362;SDS011;16349;53.672;10.014;2023-06-22T08:51:38;2.55;;;2.05;;
29362;SDS011;16349;53.672;10.014;2023-06-22T08:54:06;2.50;;;1.90;;
29362;SDS011;16349;53.672;10.014;2023-06-22T08:56:34;1.73;;;1.60;;
29362;SDS011;16349;53.672;10.014;2023-06-22T08:59:01;3.28;;;2.13;;
29362;SDS011;16349;53.672;10.014;2023-06-22T09:01:27;2.50;;;2.30;;
29362;SDS011;16349;53.672;10.014;2023-06-22T09:03:54;2.05;;;1.88;;
29362;SDS011;16349;53.672;10.014;2023-06-22T09:06:23;4.22;;;2.60;;
29362;SDS011;16349;53.672;10.014;2023-06-22T09:08:49;2.45;;;2.00;;
29362;SDS011;16349;53.672;10.014;2023-06-22T09:11:18;3.42;;;1.85;;
29362;SDS011;16349;53.672;10.014;2023-06-22T09:13:45;2.28;;;2.08;;
29362;SDS011;16349;53.672;10.014;2023-06-22T09:16:12;1.90;;;1.80;;
29362;SDS011;16349;53.672;10.014;2023-06-22T09:18:39;3.03;;;2.08;;
29362;SDS011;16349;53.672;10.014;2023-06-22T09:21:07;2.55;;;1.83;;
29362;SDS011;16349;53.672;10.014;2023-06-22T09:23:34;2.28;;;2.15;;
29362;SDS011;16349;53.672;10.014;2023-06-22T09:26:01;2.97;;;2.53;;
29362;SDS011;16349;53.672;10.014;2023-06-22T09:28:30;2.50;;;2.40;;
29362;SDS011;16349;53.672;10.014;2023-06-22T09:30:58;2.50;;;2.30;;
29362;SDS011;16349;53.672;10.014;2023-06-22T09:33:25;2.22;;;2.03;;
29362;SDS011;16349;53.672;10.014;2023-06-22T09:35:52;2.20;;;2.00;;
29362;SDS011;16349;53.672;10.014;2023-06-22T09:38:19;2.35;;;2.20;;
29362;SDS011;16349;53.672;10.014;2023-06-22T09:40:46;2.55;;;2.22;;
29362;SDS011;16349;53.672;10.014;2023-06-22T09:43:13;2.03;;;1.80;;
29362;SDS011;16349;53.672;10.014;2023-06-22T09:45:41;2.75;;;2.50;;
29362;SDS011;16349;53.672;10.014;2023-06-22T09:48:08;2.47;;;2.17;;
29362;SDS011;16349;53.672;10.014;2023-06-22T09:50:35;2.85;;;2.53;;
29362;SDS011;16349;53.672;10.014;2023-06-22T09:53:02;2.40;;;2.20;;
29362;SDS011;16349;53.672;10.014;2023-06-22T09:55:29;2.35;;;1.95;;
29362;SDS011;16349;53.672;10.014;2023-06-22T09:57:56;3.05;;;2.17;;
29362;SDS011;16349;53.672;10.014;2023-06-22T10:00:23;2.50;;;2.08;;
29362;SDS011;16349;53.672;10.014;2023-06-22T10:02:53;2.50;;;2.30;;
29362;SDS011;16349;53.672;10.014;2023-06-22T10:05:20;4.35;;;2.30;;
29362;SDS011;16349;53.672;10.014;2023-06-22T10:07:47;2.80;;;2.53;;
29362;SDS011;16349;53.672;10.014;2023-06-22T10:10:14;2.80;;;2.40;;
29362;SDS011;16349;53.672;10.014;2023-06-22T10:12:42;3.70;;;2.42;;
29362;SDS011;16349;53.672;10.014;2023-06-22T10:15:11;4.78;;;2.40;;
29362;SDS011;16349;53.672;10.014;2023-06-22T10:17:38;2.53;;;2.30;;
29362;SDS011;16349;53.672;10.014;2023-06-22T10:20:07;2.58;;;2.15;;
29362;SDS011;16349;53.672;10.014;2023-06-22T10:22:37;2.45;;;2.25;;
29362;SDS011;16349;53.672;10.014;2023-06-22T10:25:05;4.20;;;2.30;;
29362;SDS011;16349;53.672;10.014;2023-06-22T10:27:33;2.60;;;2.40;;
29362;SDS011;16349;53.672;10.014;2023-06-22T10:30:00;4.60;;;2.97;;
29362;SDS011;16349;53.672;10.014;2023-06-22T10:32:27;3.00;;;2.22;;
29362;SDS011;16349;53.672;10.014;2023-06-22T10:34:54;2.60;;;2.40;;
29362;SDS011;16349;53.672;10.014;2023-06-22T10:37:22;2.58;;;2.38;;
29362;SDS011;16349;53.672;10.014;2023-06-22T10:39:49;3.08;;;2.10;;
29362;SDS011;16349;53.672;10.014;2023-06-22T10:42:16;2.80;;;2.45;;
29362;SDS011;16349;53.672;10.014;2023-06-22T10:44:43;3.45;;;2.78;;
29362;SDS011;16349;53.672;10.014;2023-06-22T10:47:10;3.92;;;2.47;;
29362;SDS011;16349;53.672;10.014;2023-06-22T10:49:37;2.95;;;2.30;;
29362;SDS011;16349;53.672;10.014;2023-06-22T10:52:04;3.35;;;2.50;;
29362;SDS011;16349;53.672;10.014;2023-06-22T10:54:34;3.92;;;3.05;;
29362;SDS011;16349;53.672;10.014;2023-06-22T10:57:01;3.00;;;2.42;;
29362;SDS011;16349;53.672;10.014;2023-06-22T10:59:29;2.92;;;2.60;;
29362;SDS011;16349;53.672;10.014;2023-06-22T11:01:56;2.60;;;2.20;;
29362;SDS011;16349;53.672;10.014;2023-06-22T11:04:23;3.80;;;2.65;;
29362;SDS011;16349;53.672;10.014;2023-06-22T11:06:50;3.13;;;2.13;;
29362;SDS011;16349;53.672;10.014;2023-06-22T11:09:17;3.22;;;2.95;;
29362;SDS011;16349;53.672;10.014;2023-06-22T11:11:47;2.38;;;2.17;;
29362;SDS011;16349;53.672;10.014;2023-06-22T11:14:15;3.38;;;3.08;;
29362;SDS011;16349;53.672;10.014;2023-06-22T11:16:42;3.03;;;2.83;;
29362;SDS011;16349;53.672;10.014;2023-06-22T11:19:09;2.25;;;2.15;;
29362;SDS011;16349;53.672;10.014;2023-06-22T11:21:36;2.88;;;2.67;;
29362;SDS011;16349;53.672;10.014;2023-06-22T11:24:03;2.63;;;2.42;;
29362;SDS011;16349;53.672;10.014;2023-06-22T11:26:31;3.70;;;2.90;;
29362;SDS011;16349;53.672;10.014;2023-06-22T11:28:59;2.80;;;2.60;;
29362;SDS011;16349;53.672;10.014;2023-06-22T11:31:30;3.60;;;2.90;;
29362;SDS011;16349;53.672;10.014;2023-06-22T11:33:57;5.30;;;3.38;;
29362;SDS011;16349;53.672;10.014;2023-06-22T11:36:23;3.97;;;3.30;;
29362;SDS011;16349;53.672;10.014;2023-06-22T11:38:52;2.85;;;2.42;;
29362;SDS011;16349;53.672;10.014;2023-06-22T11:41:19;3.50;;;3.20;;
29362;SDS011;16349;53.672;10.014;2023-06-22T11:43:45;3.85;;;3.40;;
29362;SDS011;16349;53.672;10.014;2023-06-22T11:46:14;3.17;;;2.97;;
29362;SDS011;16349;53.672;10.014;2023-06-22T11:48:40;3.55;;;2.83;;
29362;SDS011;16349;53.672;10.014;2023-06-22T11:51:07;3.58;;;3.38;;
29362;SDS011;16349;53.672;10.014;2023-06-22T11:53:34;3.65;;;3.35;;
29362;SDS011;16349;53.672;10.014;2023-06-22T11:56:02;3.70;;;3.40;;
29362;SDS011;16349;53.672;10.014;2023-06-22T11:58:29;3.65;;;3.35;;
29362;SDS011;16349;53.672;10.014;2023-06-22T12:00:55;4.47;;;4.10;;
29362;SDS011;16349;53.672;10.014;2023-06-22T12:03:24;4.13;;;3.45;;
29362;SDS011;16349;53.672;10.014;2023-06-22T12:05:51;4.20;;;3.80;;
29362;SDS011;16349;53.672;10.014;2023-06-22T12:08:17;3.47;;;3.22;;
29362;SDS011;16349;53.672;10.014;2023-06-22T12:10:44;2.83;;;2.60;;
29362;SDS011;16349;53.672;10.014;2023-06-22T12:13:12;4.03;;;3.63;;
29362;SDS011;16349;53.672;10.014;2023-06-22T12:15:39;3.45;;;3.00;;
29362;SDS011;16349;53.672;10.014;2023-06-22T12:18:05;2.92;;;2.72;;
29362;SDS011;16349;53.672;10.014;2023-06-22T12:20:35;4.68;;;3.13;;
29362;SDS011;16349;53.672;10.014;2023-06-22T12:23:02;3.65;;;3.10;;
29362;SDS011;16349;53.672;10.014;2023-06-22T12:25:29;3.97;;;3.67;;
29362;SDS011;16349;53.672;10.014;2023-06-22T12:27:56;3.60;;;3.30;;
29362;SDS011;16349;53.672;10.014;2023-06-22T12:30:22;3.70;;;3.40;;
29362;SDS011;16349;53.672;10.014;2023-06-22T12:32:49;3.30;;;3.10;;
29362;SDS011;16349;53.672;10.014;2023-06-22T12:35:16;3.72;;;3.42;;
29362;SDS011;16349;53.672;10.014;2023-06-22T12:37:45;4.80;;;2.85;;
29362;SDS011;16349;53.672;10.014;2023-06-22T12:40:12;3.45;;;3.17;;
29362;SDS011;16349;53.672;10.014;2023-06-22T12:42:39;4.18;;;3.60;;
29362;SDS011;16349;53.672;10.014;2023-06-22T12:45:08;3.80;;;3.50;;
29362;SDS011;16349;53.672;10.014;2023-06-22T12:47:35;3.67;;;3.38;;
29362;SDS011;16349;53.672;10.014;2023-06-22T12:50:03;3.47;;;3.17;;
29362;SDS011;16349;53.672;10.014;2023-06-22T12:52:30;3.10;;;2.90;;
29362;SDS011;16349;53.672;10.014;2023-06-22T12:54:59;3.90;;;3.47;;
29362;SDS011;16349;53.672;10.014;2023-06-22T12:57:25;3.47;;;3.17;;
29362;SDS011;16349;53.672;10.014;2023-06-22T12:59:53;5.85;;;3.67;;
29362;SDS011;16349;53.672;10.014;2023-06-22T13:02:20;3.65;;;3.45;;
29362;SDS011;16349;53.672;10.014;2023-06-22T13:04:46;3.80;;;3.50;;
29362;SDS011;16349;53.672;10.014;2023-06-22T13:07:13;3.83;;;3.35;;
29362;SDS011;16349;53.672;10.014;2023-06-22T13:09:40;3.63;;;3.40;;
29362;SDS011;16349;53.672;10.014;2023-06-22T13:12:09;4.15;;;3.75;;
29362;SDS011;16349;53.672;10.014;2023-06-22T13:14:35;3.72;;;3.53;;
29362;SDS011;16349;53.672;10.014;2023-06-22T13:17:02;3.67;;;3.38;;
29362;SDS011;16349;53.672;10.014;2023-06-22T13:19:29;4.30;;;3.65;;
29362;SDS011;16349;53.672;10.014;2023-06-22T13:21:57;4.60;;;3.75;;
29362;SDS011;16349;53.672;10.014;2023-06-22T13:24:25;3.78;;;3.55;;
29362;SDS011;16349;53.672;10.014;2023-06-22T13:26:51;4.18;;;3.88;;
29362;SDS011;16349;53.672;10.014;2023-06-22T13:29:20;4.65;;;4.25;;
29362;SDS011;16349;53.672;10.014;2023-06-22T13:31:46;4.68;;;4.28;;
29362;SDS011;16349;53.672;10.014;2023-06-22T13:34:13;4.00;;;3.70;;
29362;SDS011;16349;53.672;10.014;2023-06-22T13:36:40;3.80;;;3.50;;
29362;SDS011;16349;53.672;10.014;2023-06-22T13:39:07;3.90;;;3.60;;
29362;SDS011;16349;53.672;10.014;2023-06-22T13:41:33;4.30;;;4.00;;
29362;SDS011;16349;53.672;10.014;2023-06-22T13:44:00;4.40;;;4.10;;
29362;SDS011;16349;53.672;10.014;2023-06-22T13:46:29;4.22;;;3.97;;
29362;SDS011;16349;53.672;10.014;2023-06-22T13:48:55;4.40;;;4.00;;
29362;SDS011;16349;53.672;10.014;2023-06-22T13:51:22;6.43;;;4.10;;
29362;SDS011;16349;53.672;10.014;2023-06-22T13:53:49;4.70;;;4.40;;
29362;SDS011;16349;53.672;10.014;2023-06-22T13:56:16;4.30;;;3.92;;
29362;SDS011;16349;53.672;10.014;2023-06-22T13:58:43;3.90;;;3.63;;
29362;SDS011;16349;53.672;10.014;2023-06-22T14:01:10;4.43;;;4.13;;
29362;SDS011;16349;53.672;10.014;2023-06-22T14:03:38;4.63;;;4.28;;
29362;SDS011;16349;53.672;10.014;2023-06-22T14:06:05;4.25;;;3.95;;
29362;SDS011;16349;53.672;10.014;2023-06-22T14:08:35;10.18;;;4.47;;
29362;SDS011;16349;53.672;10.014;2023-06-22T14:11:03;3.60;;;3.40;;
29362;SDS011;16349;53.672;10.014;2023-06-22T14:13:30;4.68;;;3.83;;
29362;SDS011;16349;53.672;10.014;2023-06-22T14:15:57;3.85;;;3.65;;
29362;SDS011;16349;53.672;10.014;2023-06-22T14:18:23;3.33;;;3.13;;
29362;SDS011;16349;53.672;10.014;2023-06-22T14:20:51;3.92;;;3.63;;
29362;SDS011;16349;53.672;10.014;2023-06-22T14:23:18;4.18;;;3.88;;
29362;SDS011;16349;53.672;10.014;2023-06-22T14:25:45;3.88;;;3.58;;
29362;SDS011;16349;53.672;10.014;2023-06-22T14:28:12;4.72;;;3.90;;
29362;SDS011;16349;53.672;10.014;2023-06-22T14:30:41;3.65;;;3.40;;
29362;SDS011;16349;53.672;10.014;2023-06-22T14:33:08;4.53;;;4.05;;
29362;SDS011;16349;53.672;10.014;2023-06-22T14:35:35;3.70;;;3.40;;